Time;durP1;ratioP1;P1;durP2;ratioP2;P2;SDS_P1;SDS_P2;PMS_P1;PMS_P2;Temp;Humidity;BMP_temperature;BMP_pressure;BME280_temperature;BME280_humidity;BME280_pressure;Samples;Min_cycle;Max_cycle;Signal;HPM_P1;HPM_P2
2023/06/24 00:00:29;;;;;;;5.78;2.72;;;24.60;1.00;;;;;;4885369;29;20060;-49
2023/06/24 00:02:56;;;;;;;5.80;3.53;;;24.60;1.00;;;;;;4885972;29;20051;-47
2023/06/24 00:05:23;;;;;;;6.43;3.70;;;24.50;1.00;;;;;;4879774;29;20045;-47
2023/06/24 00:07:50;;;;;;;7.10;3.28;;;24.60;1.00;;;;;;4891031;29;20040;-53
2023/06/24 00:10:16;;;;;;;6.93;3.38;;;24.50;1.00;;;;;;4881199;29;20052;-52
2023/06/24 00:12:45;;;;;;;4.60;3.22;;;24.60;1.00;;;;;;4884064;29;20059;-50
2023/06/24 00:15:11;;;;;;;5.25;3.33;;;24.50;1.00;;;;;;5001449;23;20044;-48
2023/06/24 00:17:40;;;;;;;4.95;3.33;;;24.50;1.00;;;;;;4909213;29;20515;-51
2023/06/24 00:20:10;;;;;;;8.82;4.13;;;24.50;1.00;;;;;;4913460;29;20044;-45
2023/06/24 00:22:43;;;;;;;5.28;3.65;;;24.50;1.00;;;;;;4915415;29;20107;-48
2023/06/24 00:25:11;;;;;;;7.30;4.10;;;24.50;1.00;;;;;;4914094;29;20052;-47
2023/06/24 00:27:38;;;;;;;5.63;2.95;;;24.50;1.00;;;;;;4914011;29;20047;-45
2023/06/24 00:30:05;;;;;;;5.15;3.30;;;24.50;1.00;;;;;;4913885;29;20127;-47
2023/06/24 00:32:34;;;;;;;4.18;3.35;;;24.50;1.00;;;;;;4915055;29;20043;-49
2023/06/24 00:35:01;;;;;;;4.72;3.22;;;24.50;1.00;;;;;;4912144;29;20044;-48
2023/06/24 00:37:28;;;;;;;5.22;2.85;;;24.50;1.00;;;;;;4915761;29;20504;-45
2023/06/24 00:39:55;;;;;;;5.35;3.17;;;24.50;1.00;;;;;;4913946;29;20044;-49
2023/06/24 00:42:22;;;;;;;4.95;3.63;;;24.50;1.00;;;;;;4907380;29;20501;-47
2023/06/24 00:44:49;;;;;;;6.28;3.80;;;24.50;1.00;;;;;;4961409;23;20516;-46
2023/06/24 00:47:16;;;;;;;4.45;3.50;;;24.50;1.00;;;;;;4877714;29;20379;-51
2023/06/24 00:49:45;;;;;;;4.95;3.50;;;24.50;1.00;;;;;;4888975;29;20079;-51
2023/06/24 00:52:15;;;;;;;6.05;3.33;;;24.50;1.00;;;;;;4876254;29;20049;-48
2023/06/24 00:54:43;;;;;;;6.07;3.53;;;24.50;1.00;;;;;;4862695;29;20037;-45
2023/06/24 00:57:11;;;;;;;5.30;3.78;;;24.50;1.00;;;;;;4866260;29;20289;-45
2023/06/24 00:59:43;;;;;;;4.93;2.95;;;24.50;1.00;;;;;;4859228;29;20052;-50
2023/06/24 01:02:10;;;;;;;5.60;3.35;;;24.50;1.00;;;;;;4868523;29;20098;-48
2023/06/24 01:04:38;;;;;;;5.07;3.22;;;24.50;1.00;;;;;;4869639;29;20469;-47
2023/06/24 01:07:06;;;;;;;5.30;3.13;;;24.40;1.00;;;;;;4869463;29;20045;-51
2023/06/24 01:09:35;;;;;;;4.35;3.08;;;24.40;1.00;;;;;;4876927;29;20101;-50
2023/06/24 01:12:03;;;;;;;4.63;3.05;;;24.40;1.00;;;;;;4873177;29;20103;-50
2023/06/24 01:17:34;;;;;;;4.18;2.83;;;24.40;1.00;;;;;;4838609;29;20046;-51
2023/06/24 01:20:54;;;;;;;5.05;3.17;;;24.40;1.00;;;;;;4854789;29;20057;-52
2023/06/24 01:23:50;;;;;;;5.97;3.50;;;24.40;1.00;;;;;;4749711;30;20052;-52
2023/06/24 01:26:42;;;;;;;5.82;3.45;;;24.40;1.00;;;;;;4792842;29;20385;-52
2023/06/24 01:29:44;;;;;;;4.13;2.85;;;24.40;1.00;;;;;;4838619;29;20066;-52
2023/06/24 01:32:29;;;;;;;4.57;3.37;;;24.40;1.00;;;;;;4836767;29;20456;-52
2023/06/24 01:35:20;;;;;;;3.58;2.63;;;24.40;1.00;;;;;;4835683;29;20106;-50
2023/06/24 01:37:52;;;;;;;5.07;3.17;;;24.40;1.00;;;;;;4840252;29;20046;-52
2023/06/24 01:40:38;;;;;;;3.65;2.70;;;24.40;1.00;;;;;;4846472;29;20062;-49
2023/06/24 01:43:08;;;;;;;4.03;3.08;;;24.40;1.00;;;;;;4839986;29;20412;-51
2023/06/24 01:45:49;;;;;;;4.25;3.47;;;24.40;1.00;;;;;;4919896;23;20139;-53
2023/06/24 01:48:21;;;;;;;4.70;3.22;;;24.40;1.00;;;;;;4880666;29;20045;-51
2023/06/24 01:51:00;;;;;;;5.80;3.25;;;24.40;1.00;;;;;;4884163;29;20048;-53
2023/06/24 01:53:34;;;;;;;5.82;3.30;;;24.40;1.00;;;;;;4896578;29;20036;-53
2023/06/24 01:56:03;;;;;;;4.78;3.40;;;24.40;1.00;;;;;;4884566;29;20079;-53
2023/06/24 01:58:33;;;;;;;4.22;3.10;;;24.40;1.00;;;;;;4892243;29;20439;-53
2023/06/24 02:01:02;;;;;;;4.93;3.35;;;24.40;1.00;;;;;;4885909;29;20052;-53
2023/06/24 02:03:31;;;;;;;5.03;3.42;;;24.40;1.00;;;;;;4894342;29;20040;-51
2023/06/24 02:05:59;;;;;;;4.68;3.13;;;24.40;1.00;;;;;;4890926;29;20045;-52
2023/06/24 02:08:30;;;;;;;5.18;3.30;;;24.40;1.00;;;;;;4893026;29;20048;-53
2023/06/24 02:10:59;;;;;;;5.57;3.78;;;24.40;1.00;;;;;;4890399;29;20147;-53
2023/06/24 02:13:27;;;;;;;5.25;3.17;;;24.40;1.00;;;;;;4894459;29;20394;-51
2023/06/24 02:18:28;;;;;;;3.80;2.78;;;24.30;1.00;;;;;;4837064;29;20133;-52
2023/06/24 02:20:56;;;;;;;5.63;3.15;;;24.30;1.00;;;;;;4838109;29;20046;-52
2023/06/24 02:23:25;;;;;;;5.38;2.92;;;24.30;1.00;;;;;;4840600;29;20060;-49
2023/06/24 02:25:52;;;;;;;7.00;2.90;;;24.30;1.00;;;;;;4840843;29;20410;-52
2023/06/24 02:28:20;;;;;;;3.88;2.40;;;24.30;1.00;;;;;;4840978;29;20102;-53
2023/06/24 02:30:47;;;;;;;4.95;2.97;;;24.30;1.00;;;;;;4829259;29;20050;-53
2023/06/24 02:33:15;;;;;;;6.07;3.15;;;24.30;1.00;;;;;;4835347;29;20158;-51
2023/06/24 02:35:45;;;;;;;4.28;3.17;;;24.30;1.00;;;;;;4840762;29;20034;-51
2023/06/24 02:38:12;;;;;;;4.82;3.40;;;24.30;1.00;;;;;;4840817;29;20034;-52
2023/06/24 02:40:39;;;;;;;3.80;2.70;;;24.30;1.00;;;;;;4837479;29;20081;-52
2023/06/24 02:43:06;;;;;;;4.50;3.13;;;24.30;1.00;;;;;;4840586;29;20034;-50
2023/06/24 02:45:34;;;;;;;8.27;3.63;;;24.30;1.00;;;;;;4839410;29;20049;-50
2023/06/24 02:50:45;;;;;;;3.25;2.65;;;24.30;1.00;;;;;;4876502;29;20054;-51
2023/06/24 02:53:13;;;;;;;4.43;2.95;;;24.30;1.00;;;;;;4852889;29;20102;-48
2023/06/24 02:55:42;;;;;;;5.03;2.97;;;24.20;1.00;;;;;;4860084;29;20463;-52
2023/06/24 02:58:09;;;;;;;4.25;2.83;;;24.20;1.00;;;;;;4878258;29;20501;-52
2023/06/24 03:00:46;;;;;;;5.22;3.25;;;24.20;1.00;;;;;;4856441;29;20057;-53
2023/06/24 03:03:20;;;;;;;3.78;3.10;;;24.20;1.00;;;;;;4855479;29;20052;-44
2023/06/24 03:05:53;;;;;;;6.15;3.20;;;24.20;1.00;;;;;;4857802;29;20076;-48
2023/06/24 03:08:21;;;;;;;4.60;3.08;;;24.20;1.00;;;;;;4876307;29;20052;-52
2023/06/24 03:10:54;;;;;;;4.60;3.05;;;24.20;1.00;;;;;;4864707;29;20046;-53
2023/06/24 03:13:23;;;;;;;4.43;2.80;;;24.20;1.00;;;;;;4857436;29;20064;-50
2023/06/24 03:15:56;;;;;;;4.97;2.72;;;24.20;1.00;;;;;;4857562;29;20413;-51
2023/06/24 03:18:24;;;;;;;5.35;3.40;;;24.20;1.00;;;;;;4872748;29;20052;-52
2023/06/24 03:20:52;;;;;;;3.67;2.58;;;24.20;1.00;;;;;;4951453;23;20054;-51
2023/06/24 03:23:22;;;;;;;4.15;2.83;;;24.20;1.00;;;;;;4859602;29;20042;-49
2023/06/24 03:25:50;;;;;;;5.38;3.42;;;24.20;1.00;;;;;;4853617;29;20034;-52
2023/06/24 03:28:17;;;;;;;4.70;3.67;;;24.20;1.00;;;;;;4860686;29;20046;-50
2023/06/24 03:30:50;;;;;;;7.78;3.13;;;24.20;1.00;;;;;;4859062;29;20053;-49
2023/06/24 03:33:19;;;;;;;5.00;3.13;;;24.20;1.00;;;;;;4859907;29;20049;-48
2023/06/24 03:35:46;;;;;;;4.18;2.95;;;24.20;1.00;;;;;;4860368;29;20041;-45
2023/06/24 03:38:17;;;;;;;3.50;2.63;;;24.20;1.00;;;;;;4860597;29;20582;-50
2023/06/24 03:40:46;;;;;;;2.88;2.33;;;24.20;1.00;;;;;;4859121;29;20421;-48
2023/06/24 03:43:14;;;;;;;3.20;2.47;;;24.20;1.00;;;;;;4860162;29;20484;-46
2023/06/24 03:45:41;;;;;;;3.97;2.80;;;24.20;1.00;;;;;;4860283;29;20073;-51
2023/06/24 03:48:07;;;;;;;2.78;2.47;;;24.20;1.00;;;;;;4860185;29;20502;-48
2023/06/24 03:50:34;;;;;;;3.03;2.67;;;24.20;1.00;;;;;;4859464;29;20441;-49
2023/06/24 03:53:03;;;;;;;4.90;3.00;;;24.20;1.00;;;;;;4859959;29;20181;-47
2023/06/24 03:55:31;;;;;;;3.38;2.97;;;24.20;1.00;;;;;;4857624;29;20079;-51
2023/06/24 03:57:58;;;;;;;5.32;3.05;;;24.20;1.00;;;;;;4860109;29;20140;-52
2023/06/24 04:00:25;;;;;;;3.92;2.42;;;24.20;1.00;;;;;;4860351;29;20077;-52
2023/06/24 04:02:53;;;;;;;4.05;2.65;;;24.10;1.00;;;;;;4873013;29;20049;-48
2023/06/24 04:05:21;;;;;;;4.68;2.83;;;24.20;1.00;;;;;;4860283;29;20045;-52
2023/06/24 04:07:50;;;;;;;2.90;2.25;;;24.10;1.00;;;;;;4859910;29;20080;-52
2023/06/24 04:10:18;;;;;;;3.35;2.63;;;24.10;1.00;;;;;;4860098;29;20054;-51
2023/06/24 04:12:45;;;;;;;4.22;2.85;;;24.10;1.00;;;;;;4859590;29;20056;-49
2023/06/24 04:15:13;;;;;;;4.30;2.22;;;24.10;1.00;;;;;;4859813;29;20558;-45
2023/06/24 04:17:40;;;;;;;4.20;2.65;;;24.10;1.00;;;;;;4859830;29;20049;-48
2023/06/24 04:20:08;;;;;;;4.85;2.50;;;24.10;1.00;;;;;;4924061;23;20109;-47
2023/06/24 04:22:40;;;;;;;5.18;2.30;;;24.10;1.00;;;;;;4886406;29;20105;-49
2023/06/24 04:25:07;;;;;;;3.58;2.47;;;24.10;1.00;;;;;;4891194;29;20078;-46
2023/06/24 04:27:35;;;;;;;2.78;2.00;;;24.10;1.00;;;;;;4896852;29;20048;-50
2023/06/24 04:30:05;;;;;;;3.63;2.38;;;24.10;1.00;;;;;;4888130;29;20128;-51
2023/06/24 04:32:33;;;;;;;2.33;1.88;;;24.10;1.00;;;;;;4898959;29;20049;-51
2023/06/24 04:35:00;;;;;;;2.88;1.77;;;24.10;1.00;;;;;;4897493;29;20067;-47
2023/06/24 04:37:28;;;;;;;4.28;2.65;;;24.10;1.00;;;;;;4893370;29;20060;-45
2023/06/24 04:39:56;;;;;;;4.63;2.17;;;24.10;1.00;;;;;;4895042;29;20041;-44
2023/06/24 04:42:23;;;;;;;5.72;2.45;;;24.10;1.00;;;;;;4886798;29;20424;-46
2023/06/24 04:44:50;;;;;;;3.90;2.53;;;24.10;1.00;;;;;;4895620;29;20429;-46
2023/06/24 04:47:18;;;;;;;2.50;1.77;;;24.10;1.00;;;;;;4893023;29;20162;-46
2023/06/24 04:49:45;;;;;;;2.90;1.95;;;24.10;1.00;;;;;;4890012;29;20445;-50
2023/06/24 04:52:12;;;;;;;2.58;1.92;;;24.10;1.00;;;;;;5103440;23;20100;-46
2023/06/24 04:54:39;;;;;;;2.30;1.83;;;24.00;1.00;;;;;;4877001;29;20505;-49
2023/06/24 04:57:09;;;;;;;3.33;2.22;;;24.00;1.00;;;;;;4879345;29;20120;-44
2023/06/24 04:59:38;;;;;;;3.20;2.20;;;24.00;1.00;;;;;;4879057;29;20068;-49
2023/06/24 05:02:04;;;;;;;4.00;2.30;;;24.10;1.00;;;;;;4891119;29;20040;-47
2023/06/24 05:04:31;;;;;;;3.05;1.85;;;24.00;1.00;;;;;;4895988;29;20048;-48
2023/06/24 05:06:58;;;;;;;3.33;2.10;;;24.00;1.00;;;;;;4897487;29;20100;-48
2023/06/24 05:09:25;;;;;;;3.13;2.03;;;24.00;1.00;;;;;;4897486;29;20048;-44
2023/06/24 05:11:52;;;;;;;2.65;1.90;;;24.10;1.00;;;;;;4897267;29;20045;-49
2023/06/24 05:14:19;;;;;;;3.40;1.85;;;24.00;1.00;;;;;;4890841;29;20045;-47
2023/06/24 05:16:46;;;;;;;2.42;1.88;;;24.00;1.00;;;;;;4897343;29;20051;-48
2023/06/24 05:19:12;;;;;;;3.30;1.85;;;24.00;1.00;;;;;;4897385;29;20044;-50
2023/06/24 05:21:39;;;;;;;2.33;1.90;;;24.00;1.00;;;;;;4896971;29;20046;-50
2023/06/24 05:24:06;;;;;;;3.38;2.20;;;24.00;1.00;;;;;;4905080;23;20585;-50
2023/06/24 05:26:33;;;;;;;3.65;1.80;;;24.00;1.00;;;;;;4905161;29;20041;-51
2023/06/24 05:29:00;;;;;;;3.88;1.95;;;24.00;1.00;;;;;;4910512;29;20186;-51
2023/06/24 05:31:27;;;;;;;4.97;2.20;;;24.00;1.00;;;;;;4896294;29;20052;-51
2023/06/24 05:33:54;;;;;;;3.47;1.98;;;24.00;1.00;;;;;;4895122;29;20057;-51
2023/06/24 05:36:20;;;;;;;2.95;2.35;;;24.00;1.00;;;;;;4889125;29;20040;-51
2023/06/24 05:38:48;;;;;;;4.28;1.92;;;24.00;1.00;;;;;;4896963;29;20545;-48
2023/06/24 05:41:15;;;;;;;3.15;2.00;;;24.00;1.00;;;;;;4895623;29;20112;-51
2023/06/24 05:43:43;;;;;;;2.80;1.85;;;24.00;1.00;;;;;;4889822;29;20120;-51
2023/06/24 05:46:10;;;;;;;7.55;2.38;;;24.00;1.00;;;;;;4873177;29;20565;-50
2023/06/24 05:48:37;;;;;;;3.67;2.40;;;24.00;1.00;;;;;;4879454;29;20505;-51
2023/06/24 05:51:04;;;;;;;3.30;1.88;;;24.00;1.00;;;;;;4886137;29;20467;-51
2023/06/24 05:53:31;;;;;;;4.13;2.38;;;24.00;1.00;;;;;;4876625;29;20093;-51
2023/06/24 05:55:58;;;;;;;3.15;2.38;;;24.00;1.00;;;;;;4885083;29;20032;-48
2023/06/24 05:58:24;;;;;;;4.88;2.35;;;24.00;1.00;;;;;;4875166;29;20378;-48
2023/06/24 06:00:52;;;;;;;8.15;2.75;;;24.00;1.00;;;;;;4880237;29;20056;-47
2023/06/24 06:03:18;;;;;;;3.38;1.95;;;24.00;1.00;;;;;;4879199;29;20037;-51
2023/06/24 06:05:45;;;;;;;5.25;2.38;;;24.00;1.00;;;;;;4879435;29;20045;-49
2023/06/24 06:08:12;;;;;;;4.55;2.35;;;24.00;1.00;;;;;;4888114;29;20486;-47
2023/06/24 06:10:39;;;;;;;4.55;2.28;;;24.00;1.00;;;;;;4888913;29;20501;-45
2023/06/24 06:13:06;;;;;;;4.97;2.08;;;24.00;1.00;;;;;;4888412;29;20055;-51
2023/06/24 06:15:33;;;;;;;5.05;2.97;;;24.00;1.00;;;;;;4891135;29;20124;-49
2023/06/24 06:18:00;;;;;;;3.30;2.10;;;24.00;1.00;;;;;;4885440;29;20162;-51
2023/06/24 06:20:27;;;;;;;6.85;2.70;;;24.00;1.00;;;;;;4877633;29;20037;-51
2023/06/24 06:22:54;;;;;;;6.25;2.70;;;24.00;1.00;;;;;;4882415;29;20390;-47
2023/06/24 06:25:21;;;;;;;4.35;2.05;;;24.00;1.00;;;;;;4937313;23;20150;-50
2023/06/24 06:27:48;;;;;;;4.93;2.22;;;24.10;1.00;;;;;;4869148;29;20055;-51
2023/06/24 06:30:14;;;;;;;6.38;2.05;;;24.10;1.00;;;;;;4868480;29;20382;-46
2023/06/24 06:32:41;;;;;;;5.88;2.65;;;24.10;1.00;;;;;;4877142;29;20038;-51
2023/06/24 06:35:08;;;;;;;4.35;2.10;;;24.10;1.00;;;;;;4877609;29;20041;-45
2023/06/24 06:37:35;;;;;;;4.50;2.70;;;24.10;1.00;;;;;;4877475;29;20049;-48
2023/06/24 06:40:02;;;;;;;4.43;2.00;;;24.10;1.00;;;;;;4877620;29;20416;-48
2023/06/24 06:42:29;;;;;;;6.28;2.60;;;24.20;1.00;;;;;;4877341;29;20040;-51
2023/06/24 06:44:56;;;;;;;3.30;1.90;;;24.20;1.00;;;;;;4877536;29;20045;-50
2023/06/24 06:47:23;;;;;;;6.28;2.38;;;24.20;1.00;;;;;;4877322;29;20117;-51
2023/06/24 06:49:50;;;;;;;3.33;2.08;;;24.20;1.00;;;;;;4876228;29;20052;-47
2023/06/24 06:52:17;;;;;;;5.55;2.22;;;24.20;1.00;;;;;;4875890;29;20505;-46
2023/06/24 06:54:44;;;;;;;6.32;2.17;;;24.20;1.00;;;;;;4876994;29;20648;-48
2023/06/24 06:57:10;;;;;;;4.55;1.73;;;24.20;1.00;;;;;;4875006;29;20068;-47
2023/06/24 06:59:37;;;;;;;3.03;1.77;;;24.20;1.00;;;;;;4877906;29;20335;-48
2023/06/24 07:02:05;;;;;;;6.93;2.13;;;24.20;1.00;;;;;;4878476;29;20049;-50
2023/06/24 07:04:32;;;;;;;4.05;1.92;;;24.20;1.00;;;;;;4880767;29;20378;-48
2023/06/24 07:06:59;;;;;;;4.28;2.17;;;24.20;1.00;;;;;;4879704;29;20569;-47
2023/06/24 07:09:26;;;;;;;4.88;2.13;;;24.20;1.00;;;;;;4874413;29;20057;-49
2023/06/24 07:11:53;;;;;;;5.60;2.03;;;24.20;1.00;;;;;;4868950;29;20501;-50
2023/06/24 07:14:20;;;;;;;6.35;2.67;;;24.20;1.00;;;;;;4880563;29;20128;-45
2023/06/24 07:16:47;;;;;;;4.32;1.90;;;24.20;1.00;;;;;;4880632;29;20557;-50
2023/06/24 07:19:13;;;;;;;5.22;2.28;;;24.20;1.00;;;;;;4880741;29;20128;-49
2023/06/24 07:21:40;;;;;;;7.15;2.92;;;24.30;1.00;;;;;;4881063;29;20401;-48
2023/06/24 07:24:07;;;;;;;5.80;2.10;;;24.30;1.00;;;;;;4887694;29;20155;-48
2023/06/24 07:26:34;;;;;;;3.47;1.98;;;24.30;1.00;;;;;;5060840;23;20140;-50
2023/06/24 07:29:01;;;;;;;4.93;2.00;;;24.30;1.00;;;;;;4877190;29;20105;-46
2023/06/24 07:31:36;;;;;;;6.10;2.33;;;24.30;1.00;;;;;;4885427;29;20049;-49
2023/06/24 07:34:04;;;;;;;6.05;2.35;;;24.30;1.00;;;;;;4881222;29;20040;-44
2023/06/24 07:36:31;;;;;;;8.95;2.85;;;24.30;1.00;;;;;;4887313;29;20037;-45
2023/06/24 07:38:58;;;;;;;4.93;2.17;;;24.30;1.00;;;;;;4888876;29;20055;-44
2023/06/24 07:41:25;;;;;;;3.72;1.92;;;24.30;1.00;;;;;;4890419;29;20041;-50
2023/06/24 07:43:52;;;;;;;3.17;2.10;;;24.30;1.00;;;;;;4881567;29;20119;-48
2023/06/24 07:46:20;;;;;;;5.68;2.22;;;24.30;1.00;;;;;;4879688;29;20140;-48
2023/06/24 07:48:46;;;;;;;4.50;1.92;;;24.30;1.00;;;;;;4894271;29;20127;-47
2023/06/24 07:51:13;;;;;;;4.22;2.20;;;24.40;1.00;;;;;;4891936;29;20412;-45
2023/06/24 07:53:40;;;;;;;6.00;2.20;;;24.30;1.00;;;;;;4898426;29;20059;-49
2023/06/24 07:59:02;;;;;;;6.57;2.88;;;24.40;1.00;;;;;;4852899;29;20048;-52
2023/06/24 08:01:29;;;;;;;5.60;2.60;;;24.40;1.00;;;;;;4857464;29;20037;-50
2023/06/24 08:03:56;;;;;;;5.07;2.00;;;24.40;1.00;;;;;;4858613;29;20059;-51
2023/06/24 08:06:23;;;;;;;5.05;1.92;;;24.40;1.00;;;;;;4859181;29;20049;-47
2023/06/24 08:08:50;;;;;;;4.28;2.35;;;24.40;1.00;;;;;;4854725;29;20132;-46
2023/06/24 08:11:16;;;;;;;6.75;3.10;;;24.40;1.00;;;;;;4861056;29;20051;-49
2023/06/24 08:13:43;;;;;;;10.85;3.13;;;24.40;1.00;;;;;;4860906;29;20073;-46
2023/06/24 08:16:10;;;;;;;5.25;2.30;;;24.40;1.00;;;;;;4861089;29;20044;-47
2023/06/24 08:18:37;;;;;;;5.88;2.53;;;24.40;1.00;;;;;;4861212;29;20073;-48
2023/06/24 08:21:04;;;;;;;5.18;2.67;;;24.40;1.00;;;;;;4861490;29;20076;-45
2023/06/24 08:23:30;;;;;;;5.20;3.03;;;24.40;1.00;;;;;;4860749;29;20128;-47
2023/06/24 08:25:57;;;;;;;4.63;2.50;;;24.40;1.00;;;;;;4859295;29;20045;-46
2023/06/24 08:28:38;;;;;;;6.68;3.45;;;24.40;1.00;;;;;;4943284;23;20056;-46
2023/06/24 08:31:05;;;;;;;7.13;3.42;;;24.40;1.00;;;;;;4908633;29;20413;-46
2023/06/24 08:33:31;;;;;;;7.50;3.55;;;24.40;1.00;;;;;;4909340;29;20063;-49
2023/06/24 08:35:59;;;;;;;8.93;3.55;;;24.40;1.00;;;;;;4903649;29;20096;-47
2023/06/24 08:38:25;;;;;;;3.85;2.47;;;24.40;1.00;;;;;;4916764;29;20076;-45
2023/06/24 08:40:52;;;;;;;4.40;2.75;;;24.40;1.00;;;;;;4910980;29;20060;-50
2023/06/24 08:43:19;;;;;;;6.78;2.70;;;24.40;1.00;;;;;;4908890;29;20041;-47
2023/06/24 08:45:47;;;;;;;8.63;3.08;;;24.40;1.00;;;;;;4885775;29;20061;-45
2023/06/24 08:48:14;;;;;;;4.60;2.85;;;24.40;1.00;;;;;;4890742;29;20127;-47
2023/06/24 08:50:46;;;;;;;7.05;2.65;;;24.40;1.00;;;;;;4909466;29;20064;-44
2023/06/24 08:53:14;;;;;;;6.55;2.50;;;24.40;1.00;;;;;;4901877;29;20389;-46
2023/06/24 08:55:44;;;;;;;8.90;2.97;;;24.40;1.00;;;;;;4916646;29;20127;-47
2023/06/24 08:58:10;;;;;;;11.77;3.08;;;24.40;1.00;;;;;;5189785;23;20020;-52
2023/06/24 09:00:37;;;;;;;5.82;3.15;;;24.50;1.00;;;;;;4877595;29;20049;-47
2023/06/24 09:03:04;;;;;;;7.07;2.85;;;24.40;1.00;;;;;;4881503;29;20497;-48
2023/06/24 09:05:31;;;;;;;6.55;3.15;;;24.50;1.00;;;;;;4882793;29;20048;-47
2023/06/24 09:07:58;;;;;;;8.07;3.08;;;24.50;1.00;;;;;;4885945;29;20096;-48
2023/06/24 09:10:36;;;;;;;5.82;2.85;;;24.50;1.00;;;;;;4891973;29;20047;-46
2023/06/24 09:13:06;;;;;;;7.18;2.78;;;24.50;1.00;;;;;;4897361;29;20124;-48
2023/06/24 09:15:35;;;;;;;7.35;3.15;;;24.50;1.00;;;;;;4897423;29;20045;-46
2023/06/24 09:18:03;;;;;;;5.55;2.65;;;24.50;1.00;;;;;;4896424;29;20059;-51
2023/06/24 09:20:32;;;;;;;5.30;3.05;;;24.50;1.00;;;;;;4897216;29;20056;-52
2023/06/24 09:23:01;;;;;;;6.82;3.15;;;24.50;1.00;;;;;;4896967;29;20040;-45
2023/06/24 09:25:28;;;;;;;6.30;2.60;;;24.50;1.00;;;;;;4870392;29;20120;-49
2023/06/24 09:28:00;;;;;;;5.38;3.83;;;24.50;1.00;;;;;;4877860;29;20037;-50
2023/06/24 09:33:14;;;;;;;5.07;2.72;;;24.60;1.00;;;;;;4836661;29;20085;-46
2023/06/24 09:35:42;;;;;;;5.78;3.17;;;24.50;1.00;;;;;;4839115;29;20053;-48
2023/06/24 09:38:09;;;;;;;3.80;2.45;;;24.50;1.00;;;;;;4833085;29;20072;-48
2023/06/24 09:40:37;;;;;;;6.50;3.10;;;24.50;1.00;;;;;;4840707;29;20438;-49
2023/06/24 09:43:04;;;;;;;18.23;3.03;;;24.50;1.00;;;;;;4837354;29;20066;-47
2023/06/24 09:45:31;;;;;;;3.97;2.65;;;24.50;1.00;;;;;;4838893;29;20474;-48
2023/06/24 09:47:58;;;;;;;4.47;2.90;;;24.50;1.00;;;;;;4834065;29;20507;-49
2023/06/24 09:50:25;;;;;;;9.82;3.22;;;24.60;1.00;;;;;;4835847;29;20527;-48
2023/06/24 09:52:56;;;;;;;9.43;3.33;;;24.50;1.00;;;;;;4837619;29;20140;-47
2023/06/24 09:55:23;;;;;;;5.38;2.65;;;24.60;1.00;;;;;;4835372;29;20418;-46
2023/06/24 09:57:53;;;;;;;5.97;3.83;;;24.60;1.00;;;;;;4836633;29;20046;-45
2023/06/24 10:00:22;;;;;;;6.22;2.75;;;24.60;1.00;;;;;;4823990;29;20379;-45
2023/06/24 10:05:44;;;;;;;8.52;3.35;;;24.60;1.00;;;;;;4854233;29;20051;-50
2023/06/24 10:08:13;;;;;;;6.35;2.97;;;24.60;1.00;;;;;;4857927;29;20042;-47
2023/06/24 10:10:40;;;;;;;7.65;2.80;;;24.60;1.00;;;;;;4852437;29;20071;-46
2023/06/24 10:13:08;;;;;;;5.53;3.22;;;24.60;1.00;;;;;;4858139;29;20057;-46
2023/06/24 10:15:35;;;;;;;6.22;2.88;;;24.60;1.00;;;;;;4851652;29;20082;-49
2023/06/24 10:18:03;;;;;;;6.97;2.55;;;24.60;1.00;;;;;;4859224;29;20079;-47
2023/06/24 10:20:37;;;;;;;7.05;3.10;;;24.60;1.00;;;;;;4859560;29;20041;-53
2023/06/24 10:23:07;;;;;;;4.97;2.63;;;24.60;1.00;;;;;;4858952;29;20042;-51
2023/06/24 10:25:37;;;;;;;6.25;3.03;;;24.60;1.00;;;;;;4859122;29;20045;-53
2023/06/24 10:28:04;;;;;;;4.70;2.63;;;24.60;1.00;;;;;;4859093;29;20064;-51
2023/06/24 10:30:33;;;;;;;6.47;3.47;;;24.60;1.00;;;;;;4862906;29;20136;-50
2023/06/24 10:33:00;;;;;;;4.07;2.45;;;24.60;1.00;;;;;;4862654;29;20056;-53
2023/06/24 10:35:31;;;;;;;7.63;2.65;;;24.60;1.00;;;;;;4861076;29;20068;-48
2023/06/24 10:38:02;;;;;;;6.90;3.20;;;24.60;1.00;;;;;;4859469;29;20482;-50
2023/06/24 10:40:39;;;;;;;3.35;2.55;;;24.60;1.00;;;;;;4865816;29;20090;-51
2023/06/24 10:43:25;;;;;;;6.75;2.92;;;24.60;1.00;;;;;;4856564;29;20097;-50
2023/06/24 10:45:55;;;;;;;5.00;2.67;;;24.60;1.00;;;;;;4852798;29;20132;-50
2023/06/24 10:48:22;;;;;;;6.43;2.75;;;24.60;1.00;;;;;;4843300;29;20545;-50
2023/06/24 10:50:51;;;;;;;4.05;2.90;;;24.60;1.00;;;;;;4857240;29;20049;-51
2023/06/24 10:53:19;;;;;;;6.70;3.30;;;24.60;1.00;;;;;;4852423;29;20034;-51
2023/06/24 10:55:46;;;;;;;5.05;2.35;;;24.60;1.00;;;;;;4849577;29;20121;-48
2023/06/24 10:58:15;;;;;;;3.67;2.33;;;24.60;1.00;;;;;;4852219;29;20050;-50
2023/06/24 11:00:46;;;;;;;6.22;2.75;;;24.60;1.00;;;;;;4855453;29;20042;-51
2023/06/24 11:03:15;;;;;;;6.00;3.22;;;24.60;1.00;;;;;;4862294;29;20048;-52
2023/06/24 11:05:44;;;;;;;6.18;3.17;;;24.60;1.00;;;;;;4856974;29;20506;-50
2023/06/24 11:08:12;;;;;;;7.25;3.58;;;24.60;1.00;;;;;;4861958;29;20065;-51
2023/06/24 11:10:43;;;;;;;4.75;2.80;;;24.60;1.00;;;;;;4861400;29;20102;-52
2023/06/24 11:13:10;;;;;;;6.88;3.47;;;24.60;1.00;;;;;;4859927;29;20220;-48
2023/06/24 11:15:39;;;;;;;4.55;2.88;;;24.60;1.00;;;;;;4857185;29;20136;-50
2023/06/24 11:18:09;;;;;;;5.35;3.17;;;24.60;1.00;;;;;;4854884;29;20057;-46
2023/06/24 11:20:39;;;;;;;5.72;2.85;;;24.60;1.00;;;;;;4848412;29;20065;-52
2023/06/24 11:23:08;;;;;;;6.47;2.45;;;24.60;1.00;;;;;;4850925;29;20495;-49
2023/06/24 11:25:42;;;;;;;6.78;3.05;;;24.60;1.00;;;;;;4856839;29;20052;-50
2023/06/24 11:28:14;;;;;;;8.73;2.85;;;24.60;1.00;;;;;;4857152;29;20518;-46
2023/06/24 11:30:41;;;;;;;6.90;3.58;;;24.60;1.00;;;;;;4856687;29;20051;-47
2023/06/24 11:33:08;;;;;;;6.30;3.65;;;24.60;1.00;;;;;;4852767;29;20061;-47
2023/06/24 11:35:37;;;;;;;6.70;3.85;;;24.60;1.00;;;;;;4926867;23;20123;-52
2023/06/24 11:38:03;;;;;;;6.13;3.05;;;24.60;1.00;;;;;;4935098;29;20048;-51
2023/06/24 11:40:32;;;;;;;6.45;2.83;;;24.60;1.00;;;;;;4932748;29;20050;-50
2023/06/24 11:43:01;;;;;;;11.35;4.40;;;24.60;1.00;;;;;;4944418;29;20043;-47
2023/06/24 11:45:28;;;;;;;6.45;2.90;;;24.60;1.00;;;;;;4944787;29;20032;-47
2023/06/24 11:48:04;;;;;;;8.98;3.97;;;24.60;1.00;;;;;;4952683;29;20079;-47
2023/06/24 11:50:31;;;;;;;5.28;2.95;;;24.60;1.00;;;;;;4955920;29;20408;-50
2023/06/24 11:52:59;;;;;;;4.85;3.15;;;24.60;1.00;;;;;;4955467;29;20039;-49
2023/06/24 11:55:27;;;;;;;5.72;2.88;;;24.60;1.00;;;;;;4955772;29;20047;-50
2023/06/24 11:58:04;;;;;;;8.70;3.05;;;24.60;1.00;;;;;;4955481;29;20074;-45
2023/06/24 12:00:36;;;;;;;7.43;3.45;;;24.60;1.00;;;;;;4955670;29;20509;-45
2023/06/24 12:03:05;;;;;;;10.40;2.53;;;24.60;1.00;;;;;;4955471;29;20412;-51
2023/06/24 12:05:40;;;;;;;7.40;3.00;;;24.60;1.00;;;;;;4997367;23;20032;-49
2023/06/24 12:08:09;;;;;;;6.85;3.45;;;24.60;1.00;;;;;;4916818;29;20492;-48
2023/06/24 12:10:38;;;;;;;5.40;2.67;;;24.60;1.00;;;;;;4915226;29;20071;-47
2023/06/24 12:13:06;;;;;;;13.15;2.60;;;24.60;1.00;;;;;;4926990;29;20046;-49
2023/06/24 12:15:33;;;;;;;7.10;3.03;;;24.60;1.00;;;;;;4936087;29;20043;-49
2023/06/24 12:18:01;;;;;;;3.75;3.08;;;24.60;1.00;;;;;;4935997;29;20044;-49
2023/06/24 12:20:30;;;;;;;6.22;3.03;;;24.60;1.00;;;;;;4935301;29;20176;-45
2023/06/24 12:23:03;;;;;;;5.30;3.13;;;24.60;1.00;;;;;;4935831;29;20044;-45
2023/06/24 12:25:30;;;;;;;6.10;3.85;;;24.60;1.00;;;;;;4936083;29;20091;-47
2023/06/24 12:27:59;;;;;;;5.80;3.13;;;24.60;1.00;;;;;;4936005;29;20134;-46
2023/06/24 12:30:26;;;;;;;5.85;2.92;;;24.60;1.00;;;;;;4935893;29;20054;-51
2023/06/24 12:32:53;;;;;;;5.18;3.28;;;24.60;1.00;;;;;;4935562;29;20043;-46
2023/06/24 12:35:24;;;;;;;9.52;3.33;;;24.60;1.00;;;;;;4935993;29;20048;-45
2023/06/24 12:37:51;;;;;;;3.75;3.33;;;24.60;1.00;;;;;;4916581;29;20039;-51
2023/06/24 12:40:19;;;;;;;4.97;2.70;;;24.60;1.00;;;;;;4927531;29;20046;-47
2023/06/24 12:42:45;;;;;;;3.55;2.22;;;24.60;1.00;;;;;;4927585;29;20559;-46
2023/06/24 12:45:13;;;;;;;7.18;2.80;;;24.60;1.00;;;;;;4935566;29;20044;-49
2023/06/24 12:47:40;;;;;;;3.15;2.35;;;24.60;1.00;;;;;;4935654;29;20512;-46
2023/06/24 12:50:07;;;;;;;5.20;2.83;;;24.60;1.00;;;;;;4927182;29;20044;-47
2023/06/24 12:52:36;;;;;;;4.97;2.83;;;24.60;1.00;;;;;;4926471;29;20441;-52
2023/06/24 12:55:03;;;;;;;5.65;3.13;;;24.60;1.00;;;;;;4935548;29;20043;-51
2023/06/24 12:57:30;;;;;;;4.68;2.63;;;24.60;1.00;;;;;;4935329;29;20135;-52
2023/06/24 12:59:57;;;;;;;4.90;2.42;;;24.60;1.00;;;;;;4915596;29;20497;-46
2023/06/24 13:02:24;;;;;;;4.45;2.70;;;24.60;1.00;;;;;;4933702;29;20038;-48
2023/06/24 13:04:52;;;;;;;5.25;2.80;;;24.60;1.00;;;;;;4935472;29;20473;-47
2023/06/24 13:07:18;;;;;;;4.28;3.00;;;24.60;1.00;;;;;;4926763;29;20179;-48
2023/06/24 13:09:45;;;;;;;4.07;2.80;;;24.60;1.00;;;;;;4911441;29;20460;-50
2023/06/24 13:12:12;;;;;;;4.72;2.78;;;24.60;1.00;;;;;;4907865;29;20084;-52
2023/06/24 13:14:39;;;;;;;4.07;2.40;;;24.60;1.00;;;;;;4934522;29;20043;-49
2023/06/24 13:17:06;;;;;;;4.05;2.67;;;24.60;1.00;;;;;;4932448;29;20051;-45
2023/06/24 13:19:33;;;;;;;5.55;3.00;;;24.60;1.00;;;;;;4927073;29;20050;-47
2023/06/24 13:22:00;;;;;;;4.38;2.88;;;24.60;1.00;;;;;;4935061;29;20114;-47